sensor_id;sensor_type;location;lat;lon;timestamp;pressure;altitude;pressure_sealevel;temperature;humidity
76124;BME280;65173;48.066;20.976;2022-12-20T00:01:33;102494.22;;;-3.61;83.28
76124;BME280;65173;48.066;20.976;2022-12-20T00:04:36;102494.34;;;-3.54;82.69
76124;BME280;65173;48.066;20.976;2022-12-20T00:07:39;102487.69;;;-3.73;83.26
76124;BME280;65173;48.066;20.976;2022-12-20T00:10:43;102487.19;;;-3.68;83.41
76124;BME280;65173;48.066;20.976;2022-12-20T00:13:47;102486.72;;;-3.64;83.19
76124;BME280;65173;48.066;20.976;2022-12-20T00:16:49;102483.13;;;-3.71;83.72
76124;BME280;65173;48.066;20.976;2022-12-20T00:19:52;102491.75;;;-3.54;83.39
76124;BME280;65173;48.066;20.976;2022-12-20T00:22:55;102488.31;;;-3.46;83.20
76124;BME280;65173;48.066;20.976;2022-12-20T00:26:12;102487.00;;;-3.42;83.11
76124;BME280;65173;48.066;20.976;2022-12-20T00:29:15;102491.41;;;-3.43;83.42
76124;BME280;65173;48.066;20.976;2022-12-20T00:32:18;102488.94;;;-3.36;83.05
76124;BME280;65173;48.066;20.976;2022-12-20T00:35:21;102491.69;;;-3.30;83.46
76124;BME280;65173;48.066;20.976;2022-12-20T00:38:26;102491.03;;;-3.24;83.09
76124;BME280;65173;48.066;20.976;2022-12-20T00:41:31;102482.56;;;-3.26;83.56
76124;BME280;65173;48.066;20.976;2022-12-20T00:44:35;102472.63;;;-3.30;83.99
76124;BME280;65173;48.066;20.976;2022-12-20T00:47:37;102488.59;;;-3.25;83.45
76124;BME280;65173;48.066;20.976;2022-12-20T00:50:41;102485.13;;;-3.18;83.60
76124;BME280;65173;48.066;20.976;2022-12-20T00:53:44;102467.38;;;-3.22;84.01
76124;BME280;65173;48.066;20.976;2022-12-20T00:56:47;102465.97;;;-3.33;84.72
76124;BME280;65173;48.066;20.976;2022-12-20T00:59:50;102463.94;;;-3.15;83.82
76124;BME280;65173;48.066;20.976;2022-12-20T01:02:52;102452.38;;;-3.12;83.93
76124;BME280;65173;48.066;20.976;2022-12-20T01:06:00;102442.53;;;-3.02;83.78
76124;BME280;65173;48.066;20.976;2022-12-20T01:09:03;102438.78;;;-2.99;83.87
76124;BME280;65173;48.066;20.976;2022-12-20T01:12:06;102432.91;;;-3.01;83.25
76124;BME280;65173;48.066;20.976;2022-12-20T01:15:10;102435.03;;;-2.97;83.66
76124;BME280;65173;48.066;20.976;2022-12-20T01:18:13;102439.72;;;-2.92;83.30
76124;BME280;65173;48.066;20.976;2022-12-20T01:21:17;102444.13;;;-2.93;83.60
76124;BME280;65173;48.066;20.976;2022-12-20T01:24:20;102439.22;;;-2.88;83.19
76124;BME280;65173;48.066;20.976;2022-12-20T01:27:23;102433.06;;;-2.95;83.29
76124;BME280;65173;48.066;20.976;2022-12-20T01:30:27;102433.53;;;-2.91;83.25
76124;BME280;65173;48.066;20.976;2022-12-20T01:33:29;102419.34;;;-2.89;83.34
76124;BME280;65173;48.066;20.976;2022-12-20T01:36:34;102411.97;;;-2.85;83.29
76124;BME280;65173;48.066;20.976;2022-12-20T01:39:37;102402.09;;;-2.98;83.16
76124;BME280;65173;48.066;20.976;2022-12-20T01:42:39;102404.50;;;-2.88;83.63
76124;BME280;65173;48.066;20.976;2022-12-20T01:45:43;102391.91;;;-2.85;83.26
76124;BME280;65173;48.066;20.976;2022-12-20T01:49:00;102395.97;;;-2.82;83.11
76124;BME280;65173;48.066;20.976;2022-12-20T01:52:12;102392.19;;;-2.80;83.12
76124;BME280;65173;48.066;20.976;2022-12-20T01:55:22;102384.25;;;-2.86;83.41
76124;BME280;65173;48.066;20.976;2022-12-20T01:58:27;102383.25;;;-2.85;83.33
76124;BME280;65173;48.066;20.976;2022-12-20T02:01:29;102378.09;;;-2.93;83.56
76124;BME280;65173;48.066;20.976;2022-12-20T02:04:32;102381.34;;;-2.91;83.52
76124;BME280;65173;48.066;20.976;2022-12-20T02:07:36;102378.75;;;-2.91;83.54
76124;BME280;65173;48.066;20.976;2022-12-20T02:27:16;102355.50;;;-2.78;83.40
76124;BME280;65173;48.066;20.976;2022-12-20T02:30:33;102349.53;;;-2.64;82.86
76124;BME280;65173;48.066;20.976;2022-12-20T02:33:38;102344.03;;;-2.69;83.08
76124;BME280;65173;48.066;20.976;2022-12-20T02:36:42;102342.66;;;-2.65;83.04
76124;BME280;65173;48.066;20.976;2022-12-20T02:39:46;102332.19;;;-2.57;83.02
76124;BME280;65173;48.066;20.976;2022-12-20T02:42:53;102342.44;;;-2.55;83.08
76124;BME280;65173;48.066;20.976;2022-12-20T02:45:58;102348.56;;;-2.48;83.19
76124;BME280;65173;48.066;20.976;2022-12-20T02:49:08;102338.78;;;-2.46;82.92
76124;BME280;65173;48.066;20.976;2022-12-20T02:52:13;102333.72;;;-2.48;83.47
76124;BME280;65173;48.066;20.976;2022-12-20T02:55:17;102330.03;;;-2.53;83.73
76124;BME280;65173;48.066;20.976;2022-12-20T02:58:35;102328.69;;;-2.49;83.53
76124;BME280;65173;48.066;20.976;2022-12-20T03:01:44;102326.63;;;-2.54;83.45
76124;BME280;65173;48.066;20.976;2022-12-20T03:04:48;102329.06;;;-2.52;83.10
76124;BME280;65173;48.066;20.976;2022-12-20T03:07:53;102333.63;;;-2.54;83.80
76124;BME280;65173;48.066;20.976;2022-12-20T03:10:58;102341.81;;;-2.57;83.87
76124;BME280;65173;48.066;20.976;2022-12-20T03:14:04;102342.72;;;-2.50;83.63
76124;BME280;65173;48.066;20.976;2022-12-20T03:17:08;102350.34;;;-2.63;84.21
76124;BME280;65173;48.066;20.976;2022-12-20T03:20:13;102347.91;;;-2.65;84.04
76124;BME280;65173;48.066;20.976;2022-12-20T03:23:15;102338.09;;;-2.63;84.08
76124;BME280;65173;48.066;20.976;2022-12-20T03:26:18;102334.03;;;-2.65;83.97
76124;BME280;65173;48.066;20.976;2022-12-20T03:29:26;102340.78;;;-2.71;84.44
76124;BME280;65173;48.066;20.976;2022-12-20T03:32:29;102336.53;;;-2.72;84.15
76124;BME280;65173;48.066;20.976;2022-12-20T03:35:32;102326.97;;;-2.80;84.23
76124;BME280;65173;48.066;20.976;2022-12-20T03:38:35;102324.34;;;-2.80;84.39
76124;BME280;65173;48.066;20.976;2022-12-20T03:41:40;102323.66;;;-2.73;84.02
76124;BME280;65173;48.066;20.976;2022-12-20T03:44:44;102322.94;;;-2.67;83.93
76124;BME280;65173;48.066;20.976;2022-12-20T03:47:47;102318.53;;;-2.67;84.05
76124;BME280;65173;48.066;20.976;2022-12-20T03:50:50;102325.81;;;-2.54;83.72
76124;BME280;65173;48.066;20.976;2022-12-20T03:53:52;102310.16;;;-2.54;83.76
76124;BME280;65173;48.066;20.976;2022-12-20T03:56:59;102316.88;;;-2.60;83.81
76124;BME280;65173;48.066;20.976;2022-12-20T04:00:03;102315.94;;;-2.67;84.19
76124;BME280;65173;48.066;20.976;2022-12-20T04:03:15;102322.94;;;-2.67;84.04
76124;BME280;65173;48.066;20.976;2022-12-20T04:06:20;102313.50;;;-2.68;84.05
76124;BME280;65173;48.066;20.976;2022-12-20T04:09:24;102307.03;;;-2.72;84.60
76124;BME280;65173;48.066;20.976;2022-12-20T04:12:33;102324.94;;;-2.69;84.62
76124;BME280;65173;48.066;20.976;2022-12-20T04:15:38;102318.19;;;-2.64;84.77
76124;BME280;65173;48.066;20.976;2022-12-20T04:18:42;102310.03;;;-2.61;84.86
76124;BME280;65173;48.066;20.976;2022-12-20T04:21:45;102315.00;;;-2.51;84.66
76124;BME280;65173;48.066;20.976;2022-12-20T04:24:50;102302.31;;;-2.54;84.89
76124;BME280;65173;48.066;20.976;2022-12-20T04:28:02;102305.72;;;-2.54;84.58
76124;BME280;65173;48.066;20.976;2022-12-20T04:31:05;102293.00;;;-2.71;84.78
76124;BME280;65173;48.066;20.976;2022-12-20T04:34:11;102299.06;;;-2.56;85.63
76124;BME280;65173;48.066;20.976;2022-12-20T04:37:14;102304.19;;;-2.48;85.47
76124;BME280;65173;48.066;20.976;2022-12-20T04:40:24;102298.06;;;-2.55;84.99
76124;BME280;65173;48.066;20.976;2022-12-20T04:43:31;102292.84;;;-2.55;85.14
76124;BME280;65173;48.066;20.976;2022-12-20T04:46:35;102286.66;;;-2.54;85.64
76124;BME280;65173;48.066;20.976;2022-12-20T04:49:39;102293.13;;;-2.50;85.00
76124;BME280;65173;48.066;20.976;2022-12-20T04:52:42;102281.59;;;-2.56;85.32
76124;BME280;65173;48.066;20.976;2022-12-20T04:56:04;102271.34;;;-2.42;84.66
76124;BME280;65173;48.066;20.976;2022-12-20T04:59:07;102278.66;;;-2.53;84.69
76124;BME280;65173;48.066;20.976;2022-12-20T05:02:10;102269.38;;;-2.55;84.80
76124;BME280;65173;48.066;20.976;2022-12-20T05:05:25;102269.38;;;-2.55;85.42
76124;BME280;65173;48.066;20.976;2022-12-20T05:08:29;102266.94;;;-2.42;85.20
76124;BME280;65173;48.066;20.976;2022-12-20T05:11:32;102270.84;;;-2.38;85.30
76124;BME280;65173;48.066;20.976;2022-12-20T05:14:36;102261.66;;;-2.34;84.98
76124;BME280;65173;48.066;20.976;2022-12-20T05:17:39;102266.88;;;-2.34;84.91
76124;BME280;65173;48.066;20.976;2022-12-20T05:20:42;102262.00;;;-2.37;85.66
76124;BME280;65173;48.066;20.976;2022-12-20T05:23:46;102253.81;;;-2.34;85.37
76124;BME280;65173;48.066;20.976;2022-12-20T05:27:16;102261.03;;;-2.36;85.76
76124;BME280;65173;48.066;20.976;2022-12-20T05:30:22;102256.34;;;-2.26;85.37
76124;BME280;65173;48.066;20.976;2022-12-20T05:33:26;102255.28;;;-2.17;85.16
76124;BME280;65173;48.066;20.976;2022-12-20T05:36:36;102255.53;;;-2.26;85.48
76124;BME280;65173;48.066;20.976;2022-12-20T05:39:41;102262.66;;;-2.05;85.17
76124;BME280;65173;48.066;20.976;2022-12-20T05:42:50;102254.88;;;-2.14;84.95
76124;BME280;65173;48.066;20.976;2022-12-20T05:45:54;102253.47;;;-2.16;85.13
76124;BME280;65173;48.066;20.976;2022-12-20T05:49:07;102256.44;;;-2.34;84.99
76124;BME280;65173;48.066;20.976;2022-12-20T05:52:09;102251.91;;;-2.40;84.81
76124;BME280;65173;48.066;20.976;2022-12-20T05:55:14;102245.94;;;-2.49;85.62
76124;BME280;65173;48.066;20.976;2022-12-20T05:58:18;102254.41;;;-2.47;85.12
76124;BME280;65173;48.066;20.976;2022-12-20T06:01:31;102255.84;;;-2.59;85.26
76124;BME280;65173;48.066;20.976;2022-12-20T06:04:36;102257.81;;;-2.61;85.54
76124;BME280;65173;48.066;20.976;2022-12-20T06:07:47;102256.31;;;-2.55;85.71
76124;BME280;65173;48.066;20.976;2022-12-20T06:10:52;102261.44;;;-2.47;85.46
76124;BME280;65173;48.066;20.976;2022-12-20T06:13:57;102266.25;;;-2.36;84.94
76124;BME280;65173;48.066;20.976;2022-12-20T06:17:01;102258.06;;;-2.18;84.86
76124;BME280;65173;48.066;20.976;2022-12-20T06:20:06;102253.19;;;-2.06;84.23
76124;BME280;65173;48.066;20.976;2022-12-20T06:23:10;102253.53;;;-2.10;84.01
76124;BME280;65173;48.066;20.976;2022-12-20T06:26:19;102265.63;;;-2.08;84.44
76124;BME280;65173;48.066;20.976;2022-12-20T06:29:25;102259.94;;;-2.12;84.65
76124;BME280;65173;48.066;20.976;2022-12-20T06:32:37;102252.28;;;-2.14;84.41
76124;BME280;65173;48.066;20.976;2022-12-20T06:35:41;102246.25;;;-2.14;84.74
76124;BME280;65173;48.066;20.976;2022-12-20T06:38:44;102236.25;;;-2.25;85.01
76124;BME280;65173;48.066;20.976;2022-12-20T06:41:48;102229.88;;;-2.37;85.56
76124;BME280;65173;48.066;20.976;2022-12-20T06:44:52;102236.06;;;-2.24;85.15
76124;BME280;65173;48.066;20.976;2022-12-20T06:47:56;102239.78;;;-2.18;85.26
76124;BME280;65173;48.066;20.976;2022-12-20T06:50:59;102235.78;;;-2.14;84.86
76124;BME280;65173;48.066;20.976;2022-12-20T06:54:02;102245.00;;;-2.03;84.48
76124;BME280;65173;48.066;20.976;2022-12-20T06:57:07;102240.66;;;-1.96;84.45
76124;BME280;65173;48.066;20.976;2022-12-20T07:00:11;102240.09;;;-1.92;84.59
76124;BME280;65173;48.066;20.976;2022-12-20T07:03:14;102236.59;;;-1.84;84.41
76124;BME280;65173;48.066;20.976;2022-12-20T07:06:18;102247.75;;;-1.76;84.86
76124;BME280;65173;48.066;20.976;2022-12-20T07:09:20;102251.25;;;-1.68;83.92
76124;BME280;65173;48.066;20.976;2022-12-20T07:12:23;102254.13;;;-1.63;83.65
76124;BME280;65173;48.066;20.976;2022-12-20T07:15:27;102263.78;;;-1.64;83.80
76124;BME280;65173;48.066;20.976;2022-12-20T07:18:29;102253.22;;;-1.56;83.44
76124;BME280;65173;48.066;20.976;2022-12-20T07:21:32;102253.38;;;-1.00;82.11
76124;BME280;65173;48.066;20.976;2022-12-20T07:24:34;102253.63;;;-0.74;80.34
76124;BME280;65173;48.066;20.976;2022-12-20T07:27:37;102249.03;;;-0.65;79.51
76124;BME280;65173;48.066;20.976;2022-12-20T07:30:40;102243.06;;;-0.52;78.64
76124;BME280;65173;48.066;20.976;2022-12-20T07:33:44;102245.84;;;-0.60;78.42
76124;BME280;65173;48.066;20.976;2022-12-20T07:36:47;102253.22;;;-0.71;79.64
76124;BME280;65173;48.066;20.976;2022-12-20T07:39:50;102246.31;;;-0.78;80.25
76124;BME280;65173;48.066;20.976;2022-12-20T07:42:53;102243.16;;;-0.74;80.21
76124;BME280;65173;48.066;20.976;2022-12-20T07:46:00;102247.16;;;-0.71;79.26
76124;BME280;65173;48.066;20.976;2022-12-20T07:49:02;102242.97;;;-0.72;79.38
76124;BME280;65173;48.066;20.976;2022-12-20T07:52:09;102243.00;;;-0.87;79.96
76124;BME280;65173;48.066;20.976;2022-12-20T07:55:13;102231.56;;;-0.86;80.19
76124;BME280;65173;48.066;20.976;2022-12-20T07:58:17;102233.31;;;-0.93;80.19
76124;BME280;65173;48.066;20.976;2022-12-20T08:01:23;102215.81;;;-1.14;80.44
76124;BME280;65173;48.066;20.976;2022-12-20T08:04:30;102222.59;;;-0.98;80.72
76124;BME280;65173;48.066;20.976;2022-12-20T08:07:35;102215.38;;;-0.96;80.34
76124;BME280;65173;48.066;20.976;2022-12-20T08:10:42;102208.19;;;-0.87;80.24
76124;BME280;65173;48.066;20.976;2022-12-20T08:13:49;102218.72;;;-1.02;80.17
76124;BME280;65173;48.066;20.976;2022-12-20T08:17:02;102213.75;;;-0.97;79.98
76124;BME280;65173;48.066;20.976;2022-12-20T08:20:10;102209.25;;;-0.54;79.59
76124;BME280;65173;48.066;20.976;2022-12-20T08:23:13;102207.59;;;3.00;67.31
76124;BME280;65173;48.066;20.976;2022-12-20T08:30:10;102195.03;;;5.76;56.99
76124;BME280;65173;48.066;20.976;2022-12-20T08:33:16;102196.56;;;5.61;55.24
76124;BME280;65173;48.066;20.976;2022-12-20T08:36:21;102194.75;;;5.14;58.26
76124;BME280;65173;48.066;20.976;2022-12-20T08:39:26;102189.56;;;5.43;58.93
76124;BME280;65173;48.066;20.976;2022-12-20T10:01:55;102129.47;;;6.35;56.36
76124;BME280;65173;48.066;20.976;2022-12-20T10:05:19;102118.59;;;6.03;56.34
76124;BME280;65173;48.066;20.976;2022-12-20T10:08:44;102111.84;;;4.27;59.16
76124;BME280;65173;48.066;20.976;2022-12-20T10:25:20;102087.13;;;1.76;68.34
76124;BME280;65173;48.066;20.976;2022-12-20T10:28:30;102084.00;;;2.24;67.88
76124;BME280;65173;48.066;20.976;2022-12-20T10:31:35;102074.31;;;2.92;64.90
76124;BME280;65173;48.066;20.976;2022-12-20T10:34:45;102077.25;;;2.84;65.64
76124;BME280;65173;48.066;20.976;2022-12-20T10:38:04;102070.94;;;4.06;63.12
76124;BME280;65173;48.066;20.976;2022-12-20T10:41:16;102060.03;;;5.31;59.44
76124;BME280;65173;48.066;20.976;2022-12-20T10:44:28;102063.91;;;5.40;57.31
76124;BME280;65173;48.066;20.976;2022-12-20T10:47:38;102060.34;;;4.95;57.46
76124;BME280;65173;48.066;20.976;2022-12-20T10:50:42;102048.28;;;4.64;59.27
76124;BME280;65173;48.066;20.976;2022-12-20T10:54:19;102041.50;;;4.79;59.95
76124;BME280;65173;48.066;20.976;2022-12-20T10:57:29;102026.59;;;4.62;60.24
76124;BME280;65173;48.066;20.976;2022-12-20T11:00:40;102031.06;;;4.61;61.61
76124;BME280;65173;48.066;20.976;2022-12-20T11:07:03;102022.53;;;4.94;61.57
76124;BME280;65173;48.066;20.976;2022-12-20T11:10:26;102026.94;;;5.29;59.12
76124;BME280;65173;48.066;20.976;2022-12-20T11:13:30;102016.31;;;5.40;59.59
76124;BME280;65173;48.066;20.976;2022-12-20T11:16:39;102022.94;;;5.26;59.97
76124;BME280;65173;48.066;20.976;2022-12-20T11:19:48;102015.09;;;5.31;59.04
76124;BME280;65173;48.066;20.976;2022-12-20T11:23:34;102017.81;;;4.84;60.14
76124;BME280;65173;48.066;20.976;2022-12-20T11:30:22;102004.00;;;5.06;60.34
76124;BME280;65173;48.066;20.976;2022-12-20T11:40:41;101981.41;;;5.83;58.17
76124;BME280;65173;48.066;20.976;2022-12-20T11:51:03;101976.56;;;5.64;59.30
76124;BME280;65173;48.066;20.976;2022-12-20T11:54:25;101971.44;;;5.29;60.92
76124;BME280;65173;48.066;20.976;2022-12-20T11:57:44;101971.03;;;5.08;61.28
76124;BME280;65173;48.066;20.976;2022-12-20T12:01:11;101965.47;;;5.21;60.72
76124;BME280;65173;48.066;20.976;2022-12-20T12:04:19;101970.38;;;5.58;60.73
76124;BME280;65173;48.066;20.976;2022-12-20T12:07:30;101963.16;;;5.53;59.42
76124;BME280;65173;48.066;20.976;2022-12-20T12:10:36;101954.47;;;5.86;58.77
76124;BME280;65173;48.066;20.976;2022-12-20T12:13:42;101946.31;;;5.43;58.39
76124;BME280;65173;48.066;20.976;2022-12-20T12:16:50;101942.72;;;5.20;60.83
76124;BME280;65173;48.066;20.976;2022-12-20T12:20:06;101935.31;;;3.84;64.20
76124;BME280;65173;48.066;20.976;2022-12-20T12:23:28;101934.91;;;3.27;66.14
76124;BME280;65173;48.066;20.976;2022-12-20T12:26:34;101926.06;;;3.52;66.39
76124;BME280;65173;48.066;20.976;2022-12-20T12:29:37;101917.03;;;3.18;67.13
76124;BME280;65173;48.066;20.976;2022-12-20T12:32:47;101903.28;;;2.49;69.59
76124;BME280;65173;48.066;20.976;2022-12-20T12:42:45;101906.41;;;1.96;72.11
76124;BME280;65173;48.066;20.976;2022-12-20T12:45:57;101906.50;;;1.83;73.69
76124;BME280;65173;48.066;20.976;2022-12-20T12:49:07;101902.63;;;2.11;72.88
76124;BME280;65173;48.066;20.976;2022-12-20T12:52:28;101896.44;;;2.23;72.96
76124;BME280;65173;48.066;20.976;2022-12-20T12:55:43;101901.16;;;1.96;73.99
76124;BME280;65173;48.066;20.976;2022-12-20T13:08:47;101895.75;;;2.09;73.71
76124;BME280;65173;48.066;20.976;2022-12-20T13:11:55;101893.16;;;2.28;73.62
76124;BME280;65173;48.066;20.976;2022-12-20T13:18:23;101890.94;;;2.98;71.46
76124;BME280;65173;48.066;20.976;2022-12-20T13:21:31;101896.88;;;2.57;71.64
76124;BME280;65173;48.066;20.976;2022-12-20T13:34:55;101897.88;;;2.19;74.18
76124;BME280;65173;48.066;20.976;2022-12-20T13:42:16;101894.28;;;1.95;74.97
76124;BME280;65173;48.066;20.976;2022-12-20T13:45:21;101896.09;;;1.70;75.46
76124;BME280;65173;48.066;20.976;2022-12-20T13:48:31;101895.19;;;1.58;76.29
76124;BME280;65173;48.066;20.976;2022-12-20T13:51:37;101895.28;;;1.69;76.04
76124;BME280;65173;48.066;20.976;2022-12-20T13:54:43;101893.22;;;1.78;75.48
76124;BME280;65173;48.066;20.976;2022-12-20T13:57:46;101887.09;;;1.59;75.49
76124;BME280;65173;48.066;20.976;2022-12-20T14:00:49;101877.03;;;1.50;76.51
76124;BME280;65173;48.066;20.976;2022-12-20T14:03:52;101874.91;;;1.65;76.56
76124;BME280;65173;48.066;20.976;2022-12-20T14:06:57;101863.78;;;1.63;76.45
76124;BME280;65173;48.066;20.976;2022-12-20T14:10:03;101875.06;;;1.70;76.38
76124;BME280;65173;48.066;20.976;2022-12-20T14:13:23;101866.63;;;1.61;77.07
76124;BME280;65173;48.066;20.976;2022-12-20T14:16:28;101857.03;;;1.49;77.51
76124;BME280;65173;48.066;20.976;2022-12-20T14:19:31;101853.09;;;1.39;77.95
76124;BME280;65173;48.066;20.976;2022-12-20T14:22:34;101851.69;;;1.37;78.10
76124;BME280;65173;48.066;20.976;2022-12-20T14:25:42;101844.94;;;1.16;78.96
76124;BME280;65173;48.066;20.976;2022-12-20T14:28:47;101836.53;;;1.32;78.12
76124;BME280;65173;48.066;20.976;2022-12-20T14:31:50;101835.53;;;1.33;78.07
76124;BME280;65173;48.066;20.976;2022-12-20T14:34:53;101826.06;;;1.26;78.58
76124;BME280;65173;48.066;20.976;2022-12-20T14:37:58;101820.69;;;1.21;78.69
76124;BME280;65173;48.066;20.976;2022-12-20T14:41:01;101818.81;;;0.96;79.00
76124;BME280;65173;48.066;20.976;2022-12-20T14:47:19;101799.34;;;0.73;79.69
76124;BME280;65173;48.066;20.976;2022-12-20T14:50:31;101801.75;;;0.74;79.43
76124;BME280;65173;48.066;20.976;2022-12-20T14:53:34;101805.28;;;0.61;79.86
76124;BME280;65173;48.066;20.976;2022-12-20T14:56:44;101802.63;;;0.68;80.04
76124;BME280;65173;48.066;20.976;2022-12-20T15:03:20;101791.22;;;0.49;80.22
76124;BME280;65173;48.066;20.976;2022-12-20T15:06:38;101797.06;;;0.45;80.03
76124;BME280;65173;48.066;20.976;2022-12-20T15:09:42;101803.47;;;0.55;80.32
76124;BME280;65173;48.066;20.976;2022-12-20T15:12:45;101799.47;;;0.53;80.02
76124;BME280;65173;48.066;20.976;2022-12-20T15:15:48;101796.59;;;0.61;79.67
76124;BME280;65173;48.066;20.976;2022-12-20T15:18:59;101799.41;;;0.59;80.06
76124;BME280;65173;48.066;20.976;2022-12-20T15:22:03;101790.22;;;0.44;80.85
76124;BME280;65173;48.066;20.976;2022-12-20T15:25:16;101788.63;;;0.36;81.40
76124;BME280;65173;48.066;20.976;2022-12-20T15:28:21;101784.63;;;0.27;81.29
76124;BME280;65173;48.066;20.976;2022-12-20T15:31:26;101777.59;;;0.21;81.73
76124;BME280;65173;48.066;20.976;2022-12-20T15:34:36;101776.78;;;0.20;82.06
76124;BME280;65173;48.066;20.976;2022-12-20T15:37:40;101771.78;;;0.12;82.56
76124;BME280;65173;48.066;20.976;2022-12-20T15:40:47;101779.91;;;-0.03;83.83
76124;BME280;65173;48.066;20.976;2022-12-20T15:43:57;101781.06;;;0.02;83.41
76124;BME280;65173;48.066;20.976;2022-12-20T15:47:01;101767.34;;;0.06;83.32
76124;BME280;65173;48.066;20.976;2022-12-20T15:50:04;101754.66;;;0.03;83.31
76124;BME280;65173;48.066;20.976;2022-12-20T15:53:13;101746.44;;;-0.07;84.36
76124;BME280;65173;48.066;20.976;2022-12-20T15:56:19;101751.44;;;0.01;83.77
76124;BME280;65173;48.066;20.976;2022-12-20T15:59:23;101749.06;;;-0.01;83.78
76124;BME280;65173;48.066;20.976;2022-12-20T16:02:48;101754.50;;;-0.09;83.89
76124;BME280;65173;48.066;20.976;2022-12-20T16:05:51;101752.91;;;-0.16;84.23
76124;BME280;65173;48.066;20.976;2022-12-20T16:08:54;101757.13;;;-0.15;84.20
76124;BME280;65173;48.066;20.976;2022-12-20T16:11:56;101752.69;;;-0.08;84.14
76124;BME280;65173;48.066;20.976;2022-12-20T16:14:59;101755.34;;;-0.28;84.78
76124;BME280;65173;48.066;20.976;2022-12-20T16:18:02;101754.72;;;-0.17;84.26
76124;BME280;65173;48.066;20.976;2022-12-20T16:21:12;101768.41;;;-0.02;83.82
76124;BME280;65173;48.066;20.976;2022-12-20T16:24:19;101772.00;;;0.04;83.57
76124;BME280;65173;48.066;20.976;2022-12-20T16:27:22;101764.94;;;0.05;83.90
76124;BME280;65173;48.066;20.976;2022-12-20T16:30:27;101752.69;;;-0.15;84.50
76124;BME280;65173;48.066;20.976;2022-12-20T16:33:29;101753.84;;;0.09;83.92
76124;BME280;65173;48.066;20.976;2022-12-20T16:36:32;101761.91;;;0.14;83.97
76124;BME280;65173;48.066;20.976;2022-12-20T16:39:35;101763.72;;;0.14;83.81
76124;BME280;65173;48.066;20.976;2022-12-20T16:42:37;101759.69;;;0.18;83.36
76124;BME280;65173;48.066;20.976;2022-12-20T16:45:40;101764.91;;;0.18;82.95
76124;BME280;65173;48.066;20.976;2022-12-20T16:48:43;101757.19;;;0.29;82.35
76124;BME280;65173;48.066;20.976;2022-12-20T16:51:47;101755.59;;;0.22;82.49
76124;BME280;65173;48.066;20.976;2022-12-20T16:54:50;101762.28;;;0.18;82.40
76124;BME280;65173;48.066;20.976;2022-12-20T16:57:53;101764.06;;;0.24;82.50
76124;BME280;65173;48.066;20.976;2022-12-20T17:00:55;101765.75;;;0.05;82.81
76124;BME280;65173;48.066;20.976;2022-12-20T17:03:58;101775.06;;;-0.06;83.29
76124;BME280;65173;48.066;20.976;2022-12-20T17:07:01;101772.66;;;-0.07;83.01
76124;BME280;65173;48.066;20.976;2022-12-20T17:10:04;101763.59;;;-0.18;82.73
76124;BME280;65173;48.066;20.976;2022-12-20T17:13:12;101744.66;;;-0.26;83.52
76124;BME280;65173;48.066;20.976;2022-12-20T17:16:16;101737.63;;;-0.26;83.32
76124;BME280;65173;48.066;20.976;2022-12-20T17:19:19;101744.28;;;-0.30;83.58
76124;BME280;65173;48.066;20.976;2022-12-20T17:22:21;101762.00;;;-0.32;83.66
76124;BME280;65173;48.066;20.976;2022-12-20T17:25:41;101776.34;;;-0.41;84.26
76124;BME280;65173;48.066;20.976;2022-12-20T17:28:52;101766.28;;;-0.57;84.76
76124;BME280;65173;48.066;20.976;2022-12-20T17:31:57;101754.38;;;-0.66;85.20
76124;BME280;65173;48.066;20.976;2022-12-20T17:35:00;101762.84;;;-0.51;85.05
76124;BME280;65173;48.066;20.976;2022-12-20T17:38:03;101760.41;;;-0.40;84.39
76124;BME280;65173;48.066;20.976;2022-12-20T17:44:24;101735.47;;;-0.62;85.55
76124;BME280;65173;48.066;20.976;2022-12-20T17:47:27;101741.88;;;-0.51;85.26
76124;BME280;65173;48.066;20.976;2022-12-20T17:50:31;101735.22;;;-0.47;85.03
76124;BME280;65173;48.066;20.976;2022-12-20T17:53:33;101724.78;;;-0.54;85.23
76124;BME280;65173;48.066;20.976;2022-12-20T17:56:36;101711.09;;;-0.69;85.73
76124;BME280;65173;48.066;20.976;2022-12-20T17:59:38;101696.22;;;-0.75;86.10
76124;BME280;65173;48.066;20.976;2022-12-20T18:02:41;101698.81;;;-0.68;85.96
76124;BME280;65173;48.066;20.976;2022-12-20T18:05:45;101706.03;;;-0.44;84.98
76124;BME280;65173;48.066;20.976;2022-12-20T18:08:49;101723.19;;;-0.55;84.90
76124;BME280;65173;48.066;20.976;2022-12-20T18:11:51;101724.97;;;-0.42;84.29
76124;BME280;65173;48.066;20.976;2022-12-20T18:14:54;101720.53;;;-0.48;84.20
76124;BME280;65173;48.066;20.976;2022-12-20T18:17:57;101708.88;;;-0.65;84.87
76124;BME280;65173;48.066;20.976;2022-12-20T18:21:03;101692.59;;;-0.74;85.09
76124;BME280;65173;48.066;20.976;2022-12-20T18:24:10;101688.34;;;-0.88;86.05
76124;BME280;65173;48.066;20.976;2022-12-20T18:27:13;101678.88;;;-0.70;85.80
76124;BME280;65173;48.066;20.976;2022-12-20T18:30:17;101679.25;;;-0.59;84.93
76124;BME280;65173;48.066;20.976;2022-12-20T18:33:19;101672.97;;;-0.45;84.17
76124;BME280;65173;48.066;20.976;2022-12-20T18:36:27;101672.44;;;-0.74;84.83
76124;BME280;65173;48.066;20.976;2022-12-20T18:39:30;101676.66;;;-0.66;84.94
76124;BME280;65173;48.066;20.976;2022-12-20T18:42:33;101686.91;;;-0.64;84.53
76124;BME280;65173;48.066;20.976;2022-12-20T18:45:36;101680.06;;;-0.65;84.60
76124;BME280;65173;48.066;20.976;2022-12-20T18:48:39;101670.00;;;-0.62;84.56
76124;BME280;65173;48.066;20.976;2022-12-20T18:51:42;101677.66;;;-0.54;84.52
76124;BME280;65173;48.066;20.976;2022-12-20T18:54:45;101691.75;;;-0.61;85.08
76124;BME280;65173;48.066;20.976;2022-12-20T18:57:48;101692.16;;;-0.64;85.07
76124;BME280;65173;48.066;20.976;2022-12-20T19:00:51;101706.66;;;-0.68;84.79
76124;BME280;65173;48.066;20.976;2022-12-20T19:03:54;101689.53;;;-0.64;84.70